Time;durP1;ratioP1;P1;durP2;ratioP2;P2;SDS_P1;SDS_P2;PMS_P1;PMS_P2;Temp;Humidity;BMP_temperature;BMP_pressure;BME280_temperature;BME280_humidity;BME280_pressure;Samples;Min_cycle;Max_cycle;Signal;HPM_P1;HPM_P2
2021/10/14 00:08:40;;;;;;;2.93;0.77;;;19.40;66.00;;;;;;20906342;28;20028;-52
2021/10/14 00:18:42;;;;;;;1.85;0.70;;;19.40;65.90;;;;;;20911762;28;20475;-56
2021/10/14 00:28:42;;;;;;;3.70;1.30;;;19.30;66.00;;;;;;20888900;28;20418;-56
2021/10/14 00:38:43;;;;;;;2.47;0.63;;;19.30;65.90;;;;;;20906488;28;20085;-52
2021/10/14 00:48:44;;;;;;;5.13;0.82;;;19.30;65.80;;;;;;20910361;28;20554;-59
2021/10/14 00:58:45;;;;;;;5.20;0.75;;;19.20;65.90;;;;;;20907263;28;20029;-56
2021/10/14 01:08:46;;;;;;;5.07;0.63;;;19.20;65.80;;;;;;20886408;28;20060;-57
2021/10/14 01:18:46;;;;;;;8.45;0.93;;;19.10;66.00;;;;;;20898878;28;20025;-59
2021/10/14 01:28:47;;;;;;;1.60;0.70;;;19.20;65.80;;;;;;20907840;28;20484;-51
2021/10/14 01:38:47;;;;;;;2.90;0.70;;;19.10;65.50;;;;;;20902099;28;20047;-55
2021/10/14 01:48:48;;;;;;;1.38;0.55;;;19.10;65.60;;;;;;20887149;28;20021;-59
2021/10/14 01:58:49;;;;;;;1.58;0.40;;;19.00;65.50;;;;;;20898157;28;20053;-59
2021/10/14 02:08:49;;;;;;;3.72;0.73;;;19.00;65.50;;;;;;20901302;28;20024;-58
2021/10/14 02:18:50;;;;;;;1.08;0.40;;;19.00;65.40;;;;;;20901402;28;20068;-59
2021/10/14 02:28:50;;;;;;;2.65;0.60;;;19.00;65.40;;;;;;20901928;28;20076;-57
2021/10/14 02:38:51;;;;;;;1.05;0.30;;;19.00;65.30;;;;;;20900533;28;20061;-52
2021/10/14 02:48:51;;;;;;;1.90;0.52;;;18.90;65.30;;;;;;20899619;28;20021;-55
2021/10/14 02:58:52;;;;;;;0.90;0.40;;;18.90;65.10;;;;;;20899181;28;20544;-52
2021/10/14 03:08:52;;;;;;;2.08;0.60;;;18.90;65.10;;;;;;20881529;28;20041;-60
2021/10/14 03:18:53;;;;;;;2.92;0.40;;;18.90;65.10;;;;;;20888422;28;20025;-59
2021/10/14 03:28:56;;;;;;;4.57;0.90;;;18.90;64.90;;;;;;20879368;28;20036;-60
2021/10/14 03:38:56;;;;;;;1.10;0.93;;;18.90;64.80;;;;;;20866885;28;20479;-54
2021/10/14 03:48:57;;;;;;;0.73;0.32;;;18.90;64.90;;;;;;20869757;28;20056;-60
2021/10/14 03:58:57;;;;;;;2.38;0.73;;;18.90;64.80;;;;;;20855282;28;20034;-55
2021/10/14 04:08:58;;;;;;;1.20;0.40;;;18.80;64.70;;;;;;20860209;28;20029;-59
2021/10/14 04:18:58;;;;;;;1.50;0.60;;;18.90;64.90;;;;;;20859208;28;20108;-59
2021/10/14 04:28:59;;;;;;;1.25;0.65;;;19.20;63.60;;;;;;20875843;28;20617;-59
2021/10/14 04:39:00;;;;;;;3.93;1.17;;;19.40;63.00;;;;;;20862315;28;20133;-58
2021/10/14 04:49:00;;;;;;;4.50;0.70;;;19.80;62.10;;;;;;20857039;28;20033;-57
2021/10/14 04:59:01;;;;;;;3.17;0.57;;;20.00;61.70;;;;;;20859760;28;20409;-57
2021/10/14 05:09:02;;;;;;;3.78;0.60;;;20.00;61.60;;;;;;20865568;28;20486;-57
2021/10/14 05:19:04;;;;;;;1.00;0.35;;;20.10;61.50;;;;;;20864528;28;20041;-56
2021/10/14 05:29:04;;;;;;;3.03;0.73;;;20.10;61.40;;;;;;20859640;28;20025;-56
2021/10/14 05:39:05;;;;;;;7.32;0.63;;;20.10;61.40;;;;;;20871260;28;20563;-59
2021/10/14 05:49:06;;;;;;;4.20;0.80;;;20.10;61.30;;;;;;20885703;28;21171;-58
2021/10/14 05:59:06;;;;;;;8.57;1.00;;;20.00;60.90;;;;;;20899681;28;20033;-58
2021/10/14 06:09:07;;;;;;;15.80;5.75;;;20.00;61.10;;;;;;20891525;28;20021;-54
2021/10/14 06:19:07;;;;;;;14.85;5.18;;;19.30;59.80;;;;;;20900172;28;20036;-56
2021/10/14 06:29:08;;;;;;;13.25;4.40;;;19.20;60.50;;;;;;20900222;28;20029;-59
2021/10/14 06:39:08;;;;;;;7.72;2.28;;;19.50;60.60;;;;;;20897670;28;20040;-58
2021/10/14 06:49:09;;;;;;;13.27;3.37;;;19.70;60.70;;;;;;20908344;28;20021;-58
2021/10/14 06:59:09;;;;;;;14.27;3.45;;;19.80;60.70;;;;;;20914058;28;20523;-59
2021/10/14 07:09:10;;;;;;;12.90;3.03;;;19.90;60.40;;;;;;20913689;28;20032;-59
2021/10/14 07:19:11;;;;;;;9.43;3.20;;;20.00;60.30;;;;;;20911289;28;20029;-56
2021/10/14 07:29:11;;;;;;;6.10;2.28;;;20.00;60.10;;;;;;20909472;28;20032;-60
2021/10/14 07:39:12;;;;;;;7.60;2.20;;;20.10;59.40;;;;;;20906655;28;20073;-59
2021/10/14 07:49:14;;;;;;;5.53;1.60;;;20.10;59.10;;;;;;20898608;28;20041;-56
2021/10/14 07:59:15;;;;;;;4.65;1.70;;;20.10;59.30;;;;;;20894882;28;20514;-57
2021/10/14 08:09:15;;;;;;;3.42;1.30;;;20.10;59.00;;;;;;20886044;28;20377;-56
2021/10/14 08:19:16;;;;;;;2.50;1.40;;;20.10;59.20;;;;;;20905132;28;20158;-56
2021/10/14 08:29:16;;;;;;;3.05;1.00;;;20.00;58.80;;;;;;20906668;28;20040;-59
2021/10/14 08:39:17;;;;;;;6.65;1.63;;;20.20;58.80;;;;;;20890764;28;20037;-58
2021/10/14 08:49:18;;;;;;;2.90;1.48;;;20.10;58.90;;;;;;20877529;28;20584;-56
2021/10/14 08:59:19;;;;;;;8.95;1.70;;;20.00;59.30;;;;;;20871411;28;20100;-53
2021/10/14 09:09:35;;;;;;;2.55;1.35;;;20.10;58.80;;;;;;20871386;28;20048;-54
2021/10/14 09:19:38;;;;;;;6.38;1.75;;;20.20;58.00;;;;;;20868451;28;20067;-56
2021/10/14 09:29:40;;;;;;;4.63;1.45;;;20.00;58.50;;;;;;20870436;28;20080;-55
2021/10/14 09:40:00;;;;;;;3.85;1.10;;;19.90;58.60;;;;;;20865864;28;20114;-55
2021/10/14 09:50:05;;;;;;;3.83;0.93;;;20.00;58.60;;;;;;20855989;28;20037;-54
2021/10/14 10:00:07;;;;;;;8.57;2.45;;;19.90;59.00;;;;;;20855408;28;20382;-59
2021/10/14 10:10:10;;;;;;;4.53;0.98;;;19.90;59.80;;;;;;20856488;28;20400;-60
2021/10/14 10:20:39;;;;;;;3.55;1.00;;;19.70;60.10;;;;;;20880019;28;20388;-60
2021/10/14 10:30:40;;;;;;;2.37;1.53;;;19.80;59.90;;;;;;20897645;28;20057;-61
2021/10/14 10:40:44;;;;;;;4.15;1.55;;;19.80;60.10;;;;;;20910266;28;20472;-60
2021/10/14 10:50:50;;;;;;;4.25;1.35;;;19.70;60.20;;;;;;20901298;28;20507;-58
2021/10/14 11:00:50;;;;;;;7.82;1.40;;;19.70;60.10;;;;;;20912300;28;20133;-60
2021/10/14 11:10:57;;;;;;;2.83;1.70;;;19.70;59.90;;;;;;20912882;28;20033;-61
2021/10/14 11:20:59;;;;;;;4.95;2.03;;;19.80;59.60;;;;;;20912409;28;20025;-60
2021/10/14 11:31:01;;;;;;;3.67;2.20;;;19.70;59.80;;;;;;20890382;28;20060;-59
2021/10/14 11:41:02;;;;;;;6.78;3.13;;;19.70;59.80;;;;;;20910517;28;20037;-56
2021/10/14 11:51:11;;;;;;;6.10;2.80;;;19.60;60.00;;;;;;20868788;28;20091;-48
2021/10/14 12:01:13;;;;;;;6.72;2.53;;;19.60;60.00;;;;;;20906336;28;20028;-58
2021/10/14 12:11:22;;;;;;;4.10;2.88;;;19.40;60.30;;;;;;20905621;28;20083;-60
2021/10/14 12:21:35;;;;;;;4.65;2.58;;;19.40;60.50;;;;;;20906067;28;20033;-60
2021/10/14 12:31:35;;;;;;;3.25;2.17;;;19.30;60.80;;;;;;20906772;28;20037;-61
2021/10/14 12:41:39;;;;;;;4.95;2.83;;;19.20;60.90;;;;;;20905799;28;20209;-60
2021/10/14 12:51:41;;;;;;;4.90;2.65;;;19.20;61.10;;;;;;20904907;28;20063;-58
2021/10/14 13:01:47;;;;;;;4.60;2.92;;;19.20;61.00;;;;;;20856377;28;20021;-57
2021/10/14 13:11:48;;;;;;;4.25;2.83;;;19.20;61.30;;;;;;20853793;28;20079;-59
2021/10/14 13:21:48;;;;;;;5.70;3.17;;;19.10;61.30;;;;;;20873180;28;20479;-60
2021/10/14 13:31:49;;;;;;;7.40;4.07;;;19.10;61.50;;;;;;20867629;28;20454;-59
2021/10/14 13:41:57;;;;;;;15.20;4.00;;;19.10;61.50;;;;;;20870462;28;20036;-60
2021/10/14 13:51:57;;;;;;;8.33;4.60;;;19.00;61.80;;;;;;20852372;28;20513;-60
2021/10/14 14:01:58;;;;;;;13.27;4.30;;;19.10;61.60;;;;;;20859348;28;20033;-61
2021/10/14 14:11:58;;;;;;;12.85;5.13;;;19.10;61.80;;;;;;20854621;28;20033;-60
2021/10/14 14:21:59;;;;;;;7.43;3.67;;;19.10;62.00;;;;;;20891790;28;20036;-59
2021/10/14 14:32:00;;;;;;;10.83;4.70;;;19.20;61.90;;;;;;20894907;28;20063;-59
2021/10/14 14:42:00;;;;;;;10.07;3.22;;;19.40;61.80;;;;;;20897839;28;20825;-60
2021/10/14 14:52:02;;;;;;;7.88;2.67;;;19.70;61.80;;;;;;20898671;28;20096;-60
2021/10/14 15:02:02;;;;;;;11.77;3.40;;;20.10;61.80;;;;;;20858816;28;20084;-58
2021/10/14 15:12:06;;;;;;;3.40;1.98;;;20.30;62.00;;;;;;20865051;28;20037;-58
2021/10/14 15:22:07;;;;;;;5.50;2.22;;;20.50;61.80;;;;;;20866675;28;20072;-58
2021/10/14 15:32:08;;;;;;;4.00;2.37;;;20.60;61.40;;;;;;20859347;28;20029;-58
2021/10/14 15:42:14;;;;;;;3.00;1.83;;;20.60;61.50;;;;;;20857815;28;20044;-57
2021/10/14 15:52:15;;;;;;;4.35;2.00;;;20.60;61.60;;;;;;20868686;28;20029;-59
2021/10/14 16:02:16;;;;;;;3.42;1.85;;;20.60;61.80;;;;;;20875669;28;20032;-59
2021/10/14 16:12:16;;;;;;;2.78;1.67;;;20.50;61.70;;;;;;20871017;28;20049;-59
2021/10/14 16:22:17;;;;;;;3.50;1.98;;;20.60;61.60;;;;;;20881300;28;20067;-60
2021/10/14 16:32:21;;;;;;;3.22;1.92;;;20.60;61.80;;;;;;20876665;28;20032;-61
2021/10/14 16:42:21;;;;;;;2.85;1.90;;;20.50;61.70;;;;;;20858154;28;20078;-60
2021/10/14 16:52:22;;;;;;;5.63;2.47;;;20.50;61.70;;;;;;20897308;28;20112;-60
2021/10/14 17:02:23;;;;;;;6.43;4.07;;;20.50;61.90;;;;;;20896850;28;20044;-60
2021/10/14 17:12:23;;;;;;;9.77;4.18;;;20.50;61.70;;;;;;20897501;28;20107;-56
2021/10/14 17:43:00;;;;;;;6.22;2.85;;;20.40;62.00;;;;;;20895681;28;20029;-57
2021/10/14 17:53:01;;;;;;;4.65;2.45;;;20.40;62.50;;;;;;20899579;28;20032;-60
2021/10/14 18:04:10;;;;;;;4.30;2.97;;;20.50;62.50;;;;;;20901608;28;20052;-59
2021/10/14 18:44:18;;;;;;;13.85;10.02;;;20.10;65.20;;;;;;20882905;28;20036;-60
2021/10/14 18:54:24;;;;;;;23.03;8.30;;;20.10;65.00;;;;;;20902297;28;20110;-58
2021/10/14 18:59:14;;;;;;;22.02;10.88;;;20.00;64.60;;;;;;998627;27;20623;-57
2021/10/14 19:00:09;;;;;;;21.52;10.40;;;19.90;64.30;;;;;;1036356;28;20091;-55
2021/10/14 19:00:39;;;;;;;14.05;10.80;;;19.90;64.00;;;;;;997268;28;20558;-57
2021/10/14 19:01:10;;;;;;;16.38;12.85;;;19.90;62.90;;;;;;1036814;28;20091;-59
2021/10/14 19:01:40;;;;;;;17.67;13.82;;;19.90;62.80;;;;;;1025893;28;20064;-57
2021/10/14 19:02:11;;;;;;;17.98;13.48;;;19.80;61.70;;;;;;1033868;28;20061;-59
2021/10/14 19:02:57;;;;;;;16.10;13.45;;;19.80;61.50;;;;;;1025730;28;20034;-59
2021/10/14 19:03:59;;;;;;;16.92;13.27;;;19.80;61.30;;;;;;1012548;28;20528;-58
2021/10/14 19:05:40;;;;;;;16.42;13.77;;;19.70;60.90;;;;;;947902;29;20067;-61
2021/10/14 19:06:17;;;;;;;16.55;13.63;;;19.70;61.60;;;;;;997108;29;20026;-61
2021/10/14 19:07:07;;;;;;;15.82;12.88;;;19.70;62.10;;;;;;1003209;28;20018;-60
2021/10/14 19:09:19;;;;;;;;;;;19.80;62.90;;;;;;1027056;28;20043;-60
2021/10/14 19:10:08;;;;;;;11.73;10.27;;;19.80;62.80;;;;;;993827;28;19949;-60
2021/10/14 19:13:47;;;;;;;12.10;8.65;;;20.00;63.50;;;;;;1026415;28;20145;-61
2021/10/14 19:14:20;;;;;;;8.98;6.90;;;20.00;63.10;;;;;;1035005;28;20078;-61
2021/10/14 19:14:52;;;;;;;12.40;7.78;;;20.10;62.70;;;;;;1034716;28;20106;-60
2021/10/14 19:15:23;;;;;;;12.15;7.72;;;20.10;62.60;;;;;;1034893;28;20033;-60
2021/10/14 19:16:08;;;;;;;10.93;7.28;;;20.10;62.50;;;;;;1034955;28;20496;-59
2021/10/14 19:19:44;;;;;;;10.52;5.78;;;20.20;62.60;;;;;;1035038;28;20022;-61
2021/10/14 19:20:37;;;;;;;11.40;5.43;;;20.20;62.60;;;;;;1034819;28;20625;-60
2021/10/14 20:15:00;;;;;;;25.20;6.30;;;20.40;63.00;;;;;;103911375;27;20633;-56
2021/10/14 21:05:01;;;;;;;5.53;4.20;;;20.90;61.50;;;;;;103433025;28;20034;-57
2021/10/14 21:55:03;;;;;;;10.88;4.35;;;20.80;60.20;;;;;;103649228;28;20056;-52
2021/10/14 22:45:05;;;;;;;7.97;3.50;;;20.30;66.20;;;;;;103634438;28;20668;-56
2021/10/14 23:35:06;;;;;;;5.20;2.97;;;19.80;70.50;;;;;;103691022;28;20060;-58
